New Castle Airport
KILG : now visible

Airfield :











YOU CAN JOIN US ON...

 
LOGIN :

Register | Disclaimer

   EN    FR    IT 

 









Legend :    VFR   Marginal VFR   IFR   Intensive IFR   Very Intensive IFR
Visi :
Ceiling :
>= 8 km
>= 3000ft
5 to 8 km
1000 to 3000 ft
1500m to 5 km
500 to 1000 ft
800 to 1500m
200 to 500 ft
< 800m
< 200 ft
Symbols :   Thunderstorms  Fog  Heavy snow  Heavy precipitations  Wind > 20 kt






- Airport Elevation : 80 ft
- IATA code : ILG


KILG - New Castle

CURRENT METAR :
  • 261141Z AUTO 04004KT 3SM RA BR FEW006 OVC016 17/16 A3008 RMK AO2 P0040 T01670156

EXPIRED METARs :
  • 261125Z AUTO 02004KT 1 3/4SM R01/5500VP6000FT +RA BR FEW007 OVC018 16/16 A3008 RMK AO2 P0027 T01610156
  • 261119Z AUTO 01006KT 2SM R01/5500VP6000FT +RA BR OVC018 16/16 A3008 RMK AO2 P0019 T01610156
  • 261109Z AUTO 01004KT 1 1/2SM +RA BR OVC018 17/16 A3008 RMK AO2 P0014 T01670156
  • 261051Z AUTO 00000KT 4SM +RA BR SCT019 BKN025 OVC031 17/16 A3007 RMK AO2 SLP183 P0011 T01670156
  • 261039Z AUTO 05004KT 6SM RA BR BKN027 BKN041 OVC095 17/16 A3007 RMK AO2 P0007 T01670156
  • 260951Z AUTO 05007KT 10SM -RA FEW043 BKN095 OVC120 17/16 A3006 RMK AO2 RAB46 SLP178 P0000 T01670156
  • 260851Z AUTO 08004KT 10SM FEW065 SCT110 17/16 A3006 RMK AO2 RAE47 SLP177 P0005 60010 T01670156 58015

TAF KILG
Valid from the 26 at 12:00 until the 27 at 12:00 UTC


261130Z 2612/2712 VRB03KT 4SM -SHRA BR SCT012 OVC025
FM261400 12005KT 5SM -SHRA BR OVC012
FM261800 15006KT P6SM BKN020 OVC040
FM262100 15006KT P6SM BKN035
FM270400 VRB03KT 6SM -DZ BR OVC015
FM270600 VRB03KT 6SM -DZ BR OVC008
FM270900 VRB02KT 4SM -DZ BR BKN003
KZDC FIR / North America



MET'MAP, your aeronautical weather chart ! - Copyright ORBIFLY December 2007 - Disclaimer

ORBIFLY MET'MAP TEAM :

Programming & Development : Alexandra Zaïnal
Concept & original design : Baudouin d'Aumeries
Assistance for programming : Marc-Olivier Méhu
Technical & hardware support : Manuel Goepfert

Contact : metmap@orbifly.com




SOURCES & CREDITS :

   NOAA       Earth
Advisory